Time;durP1;ratioP1;P1;durP2;ratioP2;P2;SDS_P1;SDS_P2;PMS_P1;PMS_P2;Temp;Humidity;BMP_temperature;BMP_pressure;BME280_temperature;BME280_humidity;BME280_pressure;Samples;Min_cycle;Max_cycle;Signal;HPM_P1;HPM_P2
2022/03/27 00:01:57;;;;;;;31.42;14.75;;;;;;;1.42;67.66;96579.94;5083731;28;20516;-75
2022/03/27 00:04:23;;;;;;;36.03;14.68;;;;;;;1.37;67.85;96577.13;5096218;28;20043;-74
2022/03/27 00:06:48;;;;;;;32.03;14.45;;;;;;;1.28;67.95;96576.44;5070765;28;20036;-74
2022/03/27 00:09:15;;;;;;;35.25;13.85;;;;;;;1.12;68.20;96577.47;5088749;28;20124;-74
2022/03/27 00:11:41;;;;;;;35.67;14.38;;;;;;;1.14;68.42;96580.66;5091509;28;20051;-74
2022/03/27 00:14:07;;;;;;;37.45;14.77;;;;;;;1.07;68.69;96577.19;5092650;28;20425;-75
2022/03/27 00:16:34;;;;;;;31.88;13.32;;;;;;;1.08;68.92;96576.22;5094226;28;20047;-75
2022/03/27 00:19:01;;;;;;;29.95;13.20;;;;;;;1.05;68.67;96571.41;5090882;28;20397;-75
2022/03/27 00:21:27;;;;;;;28.63;13.38;;;;;;;1.00;68.83;96573.72;5102629;28;20043;-74
2022/03/27 00:23:53;;;;;;;35.45;14.30;;;;;;;0.85;69.19;96566.78;5109981;28;20043;-75
2022/03/27 00:26:22;;;;;;;36.78;13.85;;;;;;;0.84;69.46;96575.53;5095696;28;20040;-74
2022/03/27 00:28:48;;;;;;;32.10;14.07;;;;;;;0.78;69.49;96565.91;5092708;28;20508;-74
2022/03/27 00:31:14;;;;;;;33.35;13.38;;;;;;;0.80;69.27;96569.09;5092667;28;20040;-74
2022/03/27 00:33:41;;;;;;;31.60;13.75;;;;;;;0.69;70.01;96572.19;5092430;28;20043;-75
2022/03/27 00:36:10;;;;;;;28.55;12.93;;;;;;;0.75;69.55;96571.47;5107657;28;20053;-75
2022/03/27 00:38:37;;;;;;;28.88;11.95;;;;;;;0.75;69.74;96568.03;5109450;28;20037;-74
2022/03/27 00:41:03;;;;;;;29.02;13.65;;;;;;;0.63;70.07;96572.88;5077261;28;20040;-75
2022/03/27 00:43:28;;;;;;;33.38;13.18;;;;;;;0.66;70.09;96572.53;5104170;28;20047;-75
2022/03/27 00:45:54;;;;;;;28.25;12.07;;;;;;;0.67;70.08;96571.53;5107586;28;20176;-74
2022/03/27 00:48:21;;;;;;;36.58;14.70;;;;;;;0.50;70.60;96569.16;5112835;28;20036;-74
2022/03/27 00:50:52;;;;;;;31.27;12.48;;;;;;;0.49;70.69;96567.53;5075045;28;20497;-75
2022/03/27 00:53:19;;;;;;;32.97;13.18;;;;;;;0.64;70.15;96569.31;5092135;28;20097;-75
2022/03/27 00:55:45;;;;;;;38.05;13.98;;;;;;;0.55;70.72;96572.97;5095235;28;20047;-74
2022/03/27 00:58:12;;;;;;;30.33;13.65;;;;;;;0.41;71.63;96580.56;5091265;28;20039;-74
2022/03/27 01:00:38;;;;;;;35.33;13.13;;;;;;;0.27;72.29;96589.16;5108925;27;20493;-75
2022/03/27 01:03:06;;;;;;;34.78;12.90;;;;;;;0.51;71.24;96581.09;5104096;28;20050;-75
2022/03/27 01:05:32;;;;;;;32.50;13.30;;;;;;;0.40;70.94;96578.97;5103551;27;20130;-75
2022/03/27 01:08:01;;;;;;;31.15;13.70;;;;;;;0.43;71.29;96583.81;5098851;28;20035;-74
2022/03/27 01:10:27;;;;;;;27.13;12.70;;;;;;;0.43;71.61;96578.63;5096642;28;20054;-75
2022/03/27 01:12:52;;;;;;;33.38;13.35;;;;;;;0.11;73.50;96584.94;5092161;28;20040;-75
2022/03/27 01:15:31;;;;;;;29.48;12.93;;;;;;;0.33;72.05;96572.88;5105206;28;20047;-75
2022/03/27 01:17:57;;;;;;;29.60;13.13;;;;;;;0.36;72.25;96577.75;5090867;28;20039;-74
2022/03/27 01:20:31;;;;;;;28.08;12.05;;;;;;;0.36;72.09;96572.56;5091196;28;20417;-74
2022/03/27 01:22:57;;;;;;;32.50;13.48;;;;;;;0.40;72.12;96567.81;5107819;28;20085;-74
2022/03/27 01:25:22;;;;;;;31.15;12.57;;;;;;;0.44;72.07;96562.09;5091298;28;20047;-75
2022/03/27 01:27:48;;;;;;;30.17;13.35;;;;;;;0.46;72.08;96567.91;5091311;28;20494;-75
2022/03/27 01:30:13;;;;;;;28.65;13.13;;;;;;;0.33;72.13;96559.94;5091350;28;20048;-74
2022/03/27 01:32:39;;;;;;;30.75;13.25;;;;;;;0.33;72.62;96552.16;5095524;28;20039;-74
2022/03/27 01:35:05;;;;;;;35.40;13.48;;;;;;;0.29;72.88;96556.13;5103140;28;20093;-75
2022/03/27 01:37:31;;;;;;;31.92;13.30;;;;;;;0.27;73.03;96558.06;5105495;28;20053;-74
2022/03/27 01:39:56;;;;;;;30.10;12.77;;;;;;;0.21;73.05;96553.63;5078568;28;20490;-74
2022/03/27 01:42:22;;;;;;;30.20;12.32;;;;;;;0.15;73.21;96550.75;5098908;27;20444;-75
2022/03/27 01:44:48;;;;;;;30.08;12.80;;;;;;;0.05;73.55;96565.72;5072952;28;20448;-75
2022/03/27 01:47:13;;;;;;;29.73;13.02;;;;;;;-0.02;73.88;96559.66;5091113;28;20040;-74
2022/03/27 01:49:42;;;;;;;31.95;12.73;;;;;;;-0.01;73.94;96550.91;5091334;28;20040;-75
2022/03/27 01:52:08;;;;;;;27.98;12.77;;;;;;;0.10;73.46;96542.72;5094051;28;20508;-75
2022/03/27 01:54:34;;;;;;;31.35;13.38;;;;;;;0.07;73.89;96548.25;5104642;28;20074;-74
2022/03/27 01:57:01;;;;;;;34.97;13.48;;;;;;;0.05;73.74;96544.22;5100930;28;20068;-75
2022/03/27 01:59:27;;;;;;;29.85;12.63;;;;;;;0.06;73.69;96546.66;5083646;28;20035;-75
2022/03/27 02:01:52;;;;;;;29.52;12.85;;;;;;;0.01;73.98;96548.94;5096604;28;20050;-74
2022/03/27 02:04:18;;;;;;;33.00;12.85;;;;;;;-0.08;74.26;96550.00;5082901;28;20421;-74
2022/03/27 02:06:44;;;;;;;30.30;13.25;;;;;;;-0.11;74.37;96550.38;5106627;28;20063;-74
2022/03/27 02:09:12;;;;;;;25.45;12.45;;;;;;;-0.22;74.94;96549.78;5092480;28;20032;-75
2022/03/27 02:11:40;;;;;;;31.48;13.02;;;;;;;-0.31;75.54;96550.84;5090995;28;20485;-75
2022/03/27 02:14:08;;;;;;;29.73;12.38;;;;;;;-0.13;75.15;96552.31;5104049;28;20519;-74
2022/03/27 02:16:34;;;;;;;36.03;12.82;;;;;;;-0.12;75.15;96553.94;5107652;28;20065;-74
2022/03/27 02:18:59;;;;;;;27.10;12.57;;;;;;;-0.15;75.10;96552.50;5087009;28;20500;-74
2022/03/27 02:21:25;;;;;;;32.35;12.60;;;;;;;-0.15;75.49;96543.94;5111102;28;20039;-74
2022/03/27 02:23:51;;;;;;;33.78;13.25;;;;;;;-0.33;75.86;96542.47;5094593;28;20096;-74
2022/03/27 02:26:17;;;;;;;29.67;12.45;;;;;;;-0.28;75.73;96540.16;5081393;28;20048;-74
2022/03/27 02:28:43;;;;;;;31.92;13.13;;;;;;;-0.34;75.84;96546.03;5099487;28;20062;-74
2022/03/27 02:31:09;;;;;;;27.35;12.80;;;;;;;-0.28;75.92;96544.53;5110897;28;20118;-75
2022/03/27 02:33:35;;;;;;;32.15;12.85;;;;;;;-0.41;76.05;96542.53;5102950;28;20051;-75
2022/03/27 02:36:04;;;;;;;31.13;13.18;;;;;;;-0.46;76.48;96543.06;5101086;28;20044;-75
2022/03/27 02:38:30;;;;;;;26.52;12.57;;;;;;;-0.44;76.31;96546.28;5090143;28;20067;-74
2022/03/27 02:40:56;;;;;;;32.30;13.52;;;;;;;-0.48;76.79;96549.38;5090137;28;20490;-75
2022/03/27 02:43:21;;;;;;;27.05;12.70;;;;;;;-0.61;76.89;96545.59;5094857;28;20044;-75
2022/03/27 02:45:48;;;;;;;26.83;13.13;;;;;;;-0.56;76.81;96558.00;5102619;28;20036;-74
2022/03/27 02:48:13;;;;;;;29.58;12.93;;;;;;;-0.58;76.52;96550.41;5100119;28;20040;-74
2022/03/27 02:50:43;;;;;;;29.60;12.45;;;;;;;-0.62;76.69;96554.31;5087717;28;20099;-74
2022/03/27 02:53:10;;;;;;;29.98;13.07;;;;;;;-0.47;76.42;96551.00;5092224;28;20040;-74
2022/03/27 02:55:35;;;;;;;35.53;13.48;;;;;;;-0.65;76.55;96549.50;5083466;28;20044;-74
2022/03/27 02:58:02;;;;;;;29.13;12.77;;;;;;;-0.66;76.58;96555.66;5097429;28;20035;-74
2022/03/27 03:00:28;;;;;;;29.30;12.57;;;;;;;-0.60;76.83;96552.38;5109529;28;20115;-74
2022/03/27 03:02:54;;;;;;;26.38;11.90;;;;;;;-0.62;76.91;96554.31;5101997;28;20040;-74
2022/03/27 03:05:21;;;;;;;27.58;12.65;;;;;;;-0.68;76.68;96549.84;5103423;28;20041;-75
2022/03/27 03:07:46;;;;;;;26.60;11.95;;;;;;;-0.74;77.18;96550.53;5093431;28;20071;-74
2022/03/27 03:10:14;;;;;;;29.05;12.43;;;;;;;-0.75;76.92;96548.91;5089792;28;20047;-74
2022/03/27 03:12:40;;;;;;;27.48;11.85;;;;;;;-0.69;76.88;96553.41;5089165;28;20050;-74
2022/03/27 03:15:06;;;;;;;27.33;11.85;;;;;;;-0.74;77.31;96555.72;5089398;28;20071;-74
2022/03/27 03:17:32;;;;;;;33.45;12.63;;;;;;;-0.79;77.38;96552.81;5089199;28;20097;-74
2022/03/27 03:19:58;;;;;;;30.85;12.07;;;;;;;-0.88;77.06;96550.31;5089746;28;20040;-75
2022/03/27 03:22:24;;;;;;;27.77;11.90;;;;;;;-0.84;77.64;96557.72;5095083;28;20329;-75
2022/03/27 03:24:50;;;;;;;29.33;12.27;;;;;;;-0.82;77.21;96553.16;5087659;28;20047;-74
2022/03/27 03:27:16;;;;;;;27.70;11.48;;;;;;;-0.87;76.98;96557.06;5077841;28;20036;-74
2022/03/27 03:29:41;;;;;;;29.63;12.93;;;;;;;-0.79;77.52;96558.00;5089381;28;20044;-74
2022/03/27 03:32:07;;;;;;;32.83;12.65;;;;;;;-0.80;77.74;96551.22;5089194;28;20036;-74
2022/03/27 03:34:33;;;;;;;28.20;11.75;;;;;;;-0.87;77.85;96551.91;5089285;28;20125;-74
2022/03/27 03:36:58;;;;;;;29.23;11.80;;;;;;;-0.93;77.49;96552.59;5074601;28;20135;-75
2022/03/27 03:39:24;;;;;;;28.98;11.77;;;;;;;-0.89;77.81;96553.88;5095723;28;20075;-74
2022/03/27 03:41:50;;;;;;;26.05;11.85;;;;;;;-0.90;78.04;96547.06;5089412;28;20040;-74
2022/03/27 03:44:15;;;;;;;26.90;11.77;;;;;;;-0.84;78.31;96544.78;5101390;28;20140;-75
2022/03/27 03:46:41;;;;;;;24.80;11.57;;;;;;;-0.94;78.60;96553.56;5085779;28;20525;-75
2022/03/27 03:49:07;;;;;;;26.00;11.93;;;;;;;-0.99;78.53;96552.47;5073018;28;20043;-74
2022/03/27 03:51:36;;;;;;;28.92;11.55;;;;;;;-1.07;79.35;96550.75;5071110;28;20040;-75
2022/03/27 03:54:04;;;;;;;26.65;11.52;;;;;;;-1.37;81.07;96554.91;5089116;28;20108;-75
2022/03/27 03:56:29;;;;;;;29.08;11.57;;;;;;;-1.16;79.26;96547.41;5088921;28;20040;-75
2022/03/27 03:58:55;;;;;;;26.63;12.13;;;;;;;-1.12;78.89;96553.84;5106361;28;20810;-74
2022/03/27 04:01:21;;;;;;;25.55;11.55;;;;;;;-1.13;79.20;96551.41;5088977;28;20036;-75
2022/03/27 04:03:46;;;;;;;29.15;12.70;;;;;;;-1.11;78.77;96554.63;5080297;28;20128;-75
2022/03/27 04:06:12;;;;;;;26.33;11.80;;;;;;;-1.11;79.82;96554.63;5077564;28;20044;-74
2022/03/27 04:08:37;;;;;;;30.65;11.15;;;;;;;-1.09;79.86;96547.53;5088914;28;20040;-74
2022/03/27 04:11:04;;;;;;;29.70;12.73;;;;;;;-1.08;79.75;96549.94;5089736;28;20036;-75
2022/03/27 04:13:30;;;;;;;30.67;11.93;;;;;;;-1.11;79.39;96545.09;5082959;28;20521;-75
2022/03/27 04:15:55;;;;;;;25.50;12.40;;;;;;;-1.13;79.58;96536.72;5109213;28;20050;-74
2022/03/27 04:18:21;;;;;;;30.88;11.95;;;;;;;-1.12;79.92;96542.69;5100191;28;20043;-75
2022/03/27 04:20:47;;;;;;;28.52;12.15;;;;;;;-1.15;79.46;96545.59;5077103;28;20558;-74
2022/03/27 04:23:14;;;;;;;25.38;11.57;;;;;;;-1.18;79.91;96543.38;5084334;28;20127;-75
2022/03/27 04:25:39;;;;;;;25.25;11.50;;;;;;;-1.12;78.98;96547.84;5102055;28;20422;-74
2022/03/27 04:28:07;;;;;;;27.80;12.52;;;;;;;-1.14;79.32;96545.44;5098914;28;20040;-74
2022/03/27 04:30:34;;;;;;;26.52;11.93;;;;;;;-1.19;79.83;96541.75;5088638;28;20383;-74
2022/03/27 04:33:00;;;;;;;32.03;12.38;;;;;;;-1.35;80.56;96538.28;5071516;28;20040;-74
2022/03/27 04:35:25;;;;;;;29.48;11.85;;;;;;;-1.30;79.90;96545.53;5088588;28;20052;-75
2022/03/27 04:37:51;;;;;;;29.15;11.88;;;;;;;-1.29;79.20;96545.34;5073105;28;20040;-75
2022/03/27 04:40:18;;;;;;;25.70;11.55;;;;;;;-1.25;79.56;96544.06;5086790;28;20089;-74
2022/03/27 04:42:44;;;;;;;31.90;12.13;;;;;;;-1.33;80.12;96541.50;5101405;28;20434;-74
2022/03/27 04:45:11;;;;;;;29.63;11.95;;;;;;;-1.38;80.76;96543.78;5088041;28;20043;-74
2022/03/27 04:47:36;;;;;;;31.88;13.52;;;;;;;-1.46;80.98;96542.03;5108025;28;20040;-74
2022/03/27 04:50:04;;;;;;;30.55;12.52;;;;;;;-1.46;81.35;96546.41;5108296;28;20043;-75
2022/03/27 04:52:30;;;;;;;29.15;13.05;;;;;;;-1.53;80.82;96545.47;5088079;28;20397;-75
2022/03/27 04:54:56;;;;;;;28.88;12.40;;;;;;;-1.53;80.84;96540.31;5070463;28;20052;-74
2022/03/27 04:57:22;;;;;;;30.92;12.90;;;;;;;-1.50;80.50;96539.97;5107054;28;20108;-75
2022/03/27 04:59:48;;;;;;;24.75;11.65;;;;;;;-1.45;80.47;96541.06;5087638;28;20119;-75
2022/03/27 05:02:14;;;;;;;26.55;11.38;;;;;;;-1.35;79.62;96538.28;5109605;28;20042;-74
2022/03/27 05:04:41;;;;;;;26.20;11.32;;;;;;;-1.35;79.59;96538.28;5102162;28;20089;-75
2022/03/27 05:07:07;;;;;;;24.38;11.30;;;;;;;-1.38;79.74;96533.44;5094214;28;20240;-74
2022/03/27 05:09:33;;;;;;;26.42;11.95;;;;;;;-1.33;79.63;96544.09;5092043;28;20574;-75
2022/03/27 05:11:58;;;;;;;26.55;11.55;;;;;;;-1.29;79.42;96541.97;5102860;28;20122;-74
2022/03/27 05:14:24;;;;;;;27.30;11.25;;;;;;;-1.35;79.54;96553.78;5075092;28;20446;-74
2022/03/27 05:16:50;;;;;;;28.55;12.52;;;;;;;-1.49;80.34;96546.75;5091683;28;20390;-74
2022/03/27 05:19:16;;;;;;;26.27;12.30;;;;;;;-1.44;80.78;96549.63;5092097;28;20091;-75
2022/03/27 05:21:41;;;;;;;26.45;11.25;;;;;;;-1.45;81.11;96553.97;5103294;28;20052;-75
2022/03/27 05:24:09;;;;;;;29.00;12.77;;;;;;;-1.38;80.55;96543.78;5109151;28;20036;-74
2022/03/27 05:26:35;;;;;;;26.80;11.48;;;;;;;-1.37;80.44;96555.72;5095041;28;20047;-74
2022/03/27 05:29:04;;;;;;;27.30;11.88;;;;;;;-1.53;82.42;96564.34;5073688;28;20055;-74
2022/03/27 05:31:29;;;;;;;30.13;13.18;;;;;;;-1.52;82.78;96567.72;5099804;28;20071;-75
2022/03/27 05:33:55;;;;;;;28.05;12.07;;;;;;;-1.36;80.67;96562.50;5091154;28;20533;-74
2022/03/27 05:36:21;;;;;;;30.63;12.82;;;;;;;-1.39;80.91;96562.84;5091490;28;20044;-74
2022/03/27 05:38:47;;;;;;;32.80;12.68;;;;;;;-1.36;80.71;96567.66;5074179;28;20036;-75
2022/03/27 05:41:13;;;;;;;28.98;12.85;;;;;;;-1.42;81.67;96563.19;5108929;28;20043;-74
2022/03/27 05:43:39;;;;;;;29.88;13.13;;;;;;;-1.39;81.56;96568.00;5095378;28;20044;-75
2022/03/27 05:46:05;;;;;;;26.80;11.75;;;;;;;-1.28;81.35;96557.31;5109867;28;20052;-74
2022/03/27 05:48:31;;;;;;;27.00;13.05;;;;;;;-1.16;81.41;96562.09;5091001;28;20048;-75
2022/03/27 05:50:57;;;;;;;25.60;12.63;;;;;;;-1.06;80.79;96568.66;5091582;28;20044;-74
2022/03/27 05:53:23;;;;;;;28.73;12.35;;;;;;;-1.02;81.31;96568.31;5101573;28;20036;-74
2022/03/27 05:55:48;;;;;;;32.58;12.65;;;;;;;-0.94;80.61;96570.84;5106262;28;20088;-74
2022/03/27 05:58:16;;;;;;;27.88;12.25;;;;;;;-0.95;80.84;96569.22;5100360;28;20044;-74
2022/03/27 06:00:42;;;;;;;29.38;12.68;;;;;;;-0.80;80.34;96571.91;5072849;28;20043;-75
2022/03/27 06:03:08;;;;;;;30.00;12.98;;;;;;;-0.67;80.47;96572.13;5099089;28;20043;-75
2022/03/27 06:05:33;;;;;;;26.58;12.55;;;;;;;-0.57;80.18;96574.50;5084745;28;20135;-75
2022/03/27 06:07:59;;;;;;;31.02;12.35;;;;;;;-0.40;79.82;96570.81;5100536;28;20540;-74
2022/03/27 06:10:31;;;;;;;33.65;12.82;;;;;;;-0.38;79.92;96570.63;5072811;28;20087;-74
2022/03/27 06:12:58;;;;;;;28.23;13.32;;;;;;;-0.30;79.59;96557.66;5104215;28;20036;-75
2022/03/27 06:15:24;;;;;;;33.10;13.95;;;;;;;-0.15;79.27;96555.06;5103728;28;20044;-75
2022/03/27 06:17:51;;;;;;;32.25;13.65;;;;;;;0.07;78.97;96561.19;5069088;28;20076;-75
2022/03/27 06:20:20;;;;;;;29.65;13.25;;;;;;;0.12;78.88;96556.28;5095300;28;20521;-74
2022/03/27 06:22:46;;;;;;;31.83;13.25;;;;;;;0.15;79.00;96561.09;5106516;28;20035;-75
2022/03/27 06:25:14;;;;;;;29.33;12.70;;;;;;;0.15;79.29;96553.34;5097950;28;20424;-74
2022/03/27 06:27:40;;;;;;;30.20;13.38;;;;;;;0.19;79.13;96555.56;5090515;28;20395;-74
2022/03/27 06:30:08;;;;;;;31.52;13.15;;;;;;;0.24;79.69;96563.59;5106887;28;20097;-74
2022/03/27 06:32:34;;;;;;;30.55;13.55;;;;;;;0.29;79.45;96563.91;5090324;28;20514;-75
2022/03/27 06:35:00;;;;;;;33.42;14.55;;;;;;;0.30;80.00;96563.72;5084910;28;20051;-74
2022/03/27 06:37:27;;;;;;;33.15;14.02;;;;;;;0.38;79.96;96565.41;5098614;28;20048;-75
2022/03/27 06:39:54;;;;;;;32.28;14.07;;;;;;;0.42;79.93;96571.03;5110077;28;20524;-75
2022/03/27 06:42:21;;;;;;;31.27;14.43;;;;;;;0.48;80.14;96576.28;5098343;28;20036;-75
2022/03/27 06:44:47;;;;;;;30.65;14.35;;;;;;;0.52;79.90;96572.38;5110185;27;20070;-75
2022/03/27 06:47:13;;;;;;;32.85;14.10;;;;;;;0.61;80.32;96574.88;5096672;27;20055;-71
2022/03/27 06:49:39;;;;;;;34.10;14.98;;;;;;;0.69;81.06;96579.97;5106229;27;20044;-72
2022/03/27 06:52:06;;;;;;;31.02;14.23;;;;;;;0.81;81.41;96578.50;5105752;27;20442;-72
2022/03/27 06:54:35;;;;;;;32.15;14.50;;;;;;;0.84;81.14;96575.53;5093042;28;20047;-72
2022/03/27 06:57:01;;;;;;;29.35;14.85;;;;;;;0.92;81.47;96576.41;5092443;28;20043;-72
2022/03/27 06:59:27;;;;;;;35.05;15.15;;;;;;;1.03;81.05;96573.38;5071327;28;20470;-72
2022/03/27 07:04:36;;;;;;;35.83;14.98;;;;;;;1.33;81.30;96568.09;5098741;28;20031;-73
2022/03/27 07:07:03;;;;;;;38.95;14.50;;;;;;;1.49;80.77;96583.41;5081402;28;20044;-73
2022/03/27 07:09:29;;;;;;;33.95;15.25;;;;;;;1.63;81.40;96578.38;5089600;28;20113;-73
2022/03/27 07:11:54;;;;;;;34.38;15.23;;;;;;;1.77;80.44;96572.28;5089648;28;20039;-73
2022/03/27 07:14:20;;;;;;;30.00;14.82;;;;;;;1.90;80.38;96575.00;5071410;28;20531;-73
2022/03/27 07:16:45;;;;;;;33.90;14.70;;;;;;;2.14;80.34;96580.78;5096360;28;20116;-73
2022/03/27 07:19:14;;;;;;;39.38;15.57;;;;;;;2.52;78.06;96572.59;5104772;28;20048;-72
2022/03/27 07:21:41;;;;;;;36.33;15.45;;;;;;;2.74;77.42;96580.28;5098964;27;20043;-73
2022/03/27 07:24:07;;;;;;;42.03;15.77;;;;;;;2.82;77.99;96566.34;5101446;27;20091;-73
2022/03/27 07:26:33;;;;;;;33.03;15.38;;;;;;;2.89;77.66;96573.16;5101212;27;20489;-74
2022/03/27 07:28:58;;;;;;;35.13;15.32;;;;;;;2.97;77.06;96574.00;5101402;28;20044;-74
2022/03/27 07:31:24;;;;;;;31.98;14.68;;;;;;;3.23;76.45;96573.28;5108324;28;20043;-74
2022/03/27 07:33:50;;;;;;;33.47;14.10;;;;;;;3.67;75.00;96568.56;5106364;28;20047;-74
2022/03/27 07:36:16;;;;;;;32.78;14.20;;;;;;;4.29;71.42;96574.34;5089729;28;20051;-74
2022/03/27 07:38:41;;;;;;;29.33;13.63;;;;;;;4.48;70.00;96580.53;5096117;28;20044;-74
2022/03/27 07:41:07;;;;;;;34.80;14.48;;;;;;;5.13;68.56;96569.25;5109941;28;20068;-74
2022/03/27 07:43:32;;;;;;;34.80;14.40;;;;;;;5.06;69.16;96571.91;5089943;28;20093;-74
2022/03/27 07:45:59;;;;;;;33.45;14.85;;;;;;;5.05;69.72;96569.53;5102960;27;20080;-75
2022/03/27 07:48:26;;;;;;;29.70;13.77;;;;;;;5.98;65.09;96565.56;5108031;28;20290;-75
2022/03/27 07:50:54;;;;;;;32.10;14.70;;;;;;;6.19;65.95;96564.34;5105391;28;20059;-75
2022/03/27 07:53:21;;;;;;;30.48;14.68;;;;;;;6.03;67.29;96565.69;5070866;28;20113;-73
2022/03/27 07:55:46;;;;;;;29.90;14.30;;;;;;;5.92;66.21;96569.78;5092488;28;20115;-74
2022/03/27 07:58:12;;;;;;;32.22;15.10;;;;;;;6.05;66.42;96569.69;5106459;28;20040;-75
2022/03/27 08:00:38;;;;;;;32.38;13.95;;;;;;;6.39;64.23;96564.97;5102287;28;20040;-75
2022/03/27 08:03:03;;;;;;;32.33;14.85;;;;;;;6.56;64.38;96564.41;5089003;28;20040;-74
2022/03/27 08:05:29;;;;;;;30.08;15.15;;;;;;;6.40;64.88;96571.78;5101566;28;20066;-75
2022/03/27 08:07:55;;;;;;;27.92;14.25;;;;;;;6.40;64.96;96566.56;5099383;28;20047;-74
2022/03/27 08:10:21;;;;;;;32.60;14.95;;;;;;;7.01;61.00;96560.66;5084513;28;20040;-76
2022/03/27 08:12:47;;;;;;;33.83;15.77;;;;;;;7.27;61.89;96567.41;5088705;28;20497;-75
2022/03/27 08:15:13;;;;;;;32.95;14.27;;;;;;;7.68;59.34;96555.31;5089068;28;20047;-74
2022/03/27 08:17:38;;;;;;;28.40;15.10;;;;;;;8.03;58.42;96557.22;5076831;28;20039;-75
2022/03/27 08:20:05;;;;;;;33.40;15.48;;;;;;;8.45;56.96;96559.75;5076543;28;20043;-74
2022/03/27 08:22:30;;;;;;;34.70;14.90;;;;;;;8.58;56.31;96563.16;5095821;28;20068;-74
2022/03/27 08:24:56;;;;;;;30.13;14.93;;;;;;;8.35;56.72;96554.25;5106137;28;20049;-74
2022/03/27 08:27:21;;;;;;;29.98;15.18;;;;;;;8.28;58.32;96550.94;5099969;28;20051;-73
2022/03/27 08:29:48;;;;;;;32.80;15.23;;;;;;;8.07;58.70;96558.34;5109165;28;20047;-75
2022/03/27 08:32:15;;;;;;;31.60;14.77;;;;;;;8.00;58.29;96552.41;5093013;28;20110;-76
2022/03/27 08:34:43;;;;;;;27.50;14.57;;;;;;;8.04;59.33;96558.00;5110693;27;20036;-75
2022/03/27 08:37:12;;;;;;;27.80;13.57;;;;;;;8.47;57.18;96552.44;5113314;28;20082;-74
2022/03/27 08:39:39;;;;;;;33.53;15.00;;;;;;;9.02;55.32;96553.00;5095012;28;20040;-74
2022/03/27 08:42:05;;;;;;;33.20;15.43;;;;;;;9.27;54.36;96549.28;5077562;28;20075;-74
2022/03/27 08:44:33;;;;;;;30.55;14.48;;;;;;;9.81;51.70;96544.44;5094621;27;20044;-77
2022/03/27 08:46:59;;;;;;;29.55;14.50;;;;;;;10.07;50.87;96552.72;5111720;28;20036;-78
2022/03/27 08:50:06;;;;;;;33.67;14.40;;;;;;;9.65;52.37;96550.44;5105901;28;20067;-74
2022/03/27 08:52:52;;;;;;;29.98;13.88;;;;;;;9.78;53.67;96550.13;5092082;28;20059;-74
2022/03/27 08:55:20;;;;;;;32.95;15.50;;;;;;;9.77;51.85;96543.31;5098865;28;20047;-75
2022/03/27 08:57:56;;;;;;;30.50;14.60;;;;;;;9.75;52.97;96553.25;5109844;27;20048;-75
2022/03/27 09:00:24;;;;;;;29.55;14.82;;;;;;;9.70;52.53;96558.44;5107069;28;20501;-76
2022/03/27 09:02:50;;;;;;;29.70;14.35;;;;;;;9.68;53.20;96557.84;5107496;28;20050;-78
2022/03/27 09:05:17;;;;;;;28.52;14.32;;;;;;;10.18;52.67;96554.44;5088455;28;20036;-76
2022/03/27 09:07:42;;;;;;;32.53;15.38;;;;;;;10.62;49.53;96552.97;5104674;28;20047;-76
2022/03/27 09:10:10;;;;;;;33.90;15.63;;;;;;;10.73;49.90;96549.41;5092362;28;20447;-76
2022/03/27 09:12:36;;;;;;;31.67;15.77;;;;;;;11.26;48.61;96547.94;5080552;28;20040;-76
2022/03/27 09:15:08;;;;;;;30.45;14.80;;;;;;;11.42;47.58;96545.44;5115748;27;20388;-76
2022/03/27 09:18:09;;;;;;;31.25;14.60;;;;;;;11.45;48.36;96550.22;5114244;27;20047;-76
2022/03/27 09:20:41;;;;;;;34.83;16.17;;;;;;;11.37;46.64;96548.03;5107401;28;20059;-76
2022/03/27 09:23:25;;;;;;;39.28;16.70;;;;;;;11.43;47.24;96547.03;5092884;28;20066;-76
2022/03/27 09:25:59;;;;;;;36.75;16.30;;;;;;;11.22;46.88;96552.09;5103709;28;20485;-76
2022/03/27 09:28:31;;;;;;;33.83;15.73;;;;;;;11.21;47.18;96545.22;5092003;28;20044;-76
2022/03/27 09:31:18;;;;;;;31.02;15.82;;;;;;;11.35;46.51;96544.84;5073863;28;20032;-76
2022/03/27 09:34:01;;;;;;;36.08;16.52;;;;;;;11.31;46.65;96554.31;5073584;28;20044;-76
2022/03/27 09:36:30;;;;;;;36.67;16.25;;;;;;;11.35;46.68;96544.84;5095300;28;20052;-74
2022/03/27 09:39:13;;;;;;;35.08;16.23;;;;;;;11.70;44.75;96548.88;5091677;28;20048;-74
2022/03/27 09:41:42;;;;;;;35.08;16.05;;;;;;;11.92;43.06;96549.59;5073713;28;20050;-75
2022/03/27 09:44:13;;;;;;;33.90;15.60;;;;;;;11.74;44.13;96544.69;5091249;28;20040;-74
2022/03/27 09:46:49;;;;;;;35.05;16.40;;;;;;;12.24;43.05;96540.06;5111781;28;20067;-74
2022/03/27 09:49:16;;;;;;;34.15;15.50;;;;;;;12.07;43.19;96534.94;5109918;28;20052;-74
2022/03/27 09:52:05;;;;;;;31.13;15.10;;;;;;;12.24;44.04;96530.31;5091595;28;20048;-74
2022/03/27 09:54:43;;;;;;;37.55;16.95;;;;;;;12.41;42.97;96529.34;5091451;28;20485;-75
2022/03/27 09:57:39;;;;;;;35.35;15.63;;;;;;;12.56;42.22;96526.78;5093828;28;20064;-74
2022/03/27 10:00:13;;;;;;;35.03;15.23;;;;;;;13.08;42.19;96524.34;5093530;28;20059;-74
2022/03/27 10:02:43;;;;;;;38.75;16.30;;;;;;;13.02;40.47;96528.03;5107005;28;20055;-75
2022/03/27 10:05:11;;;;;;;34.60;16.08;;;;;;;13.43;40.91;96526.31;5103197;28;20054;-74
2022/03/27 10:07:43;;;;;;;36.30;16.90;;;;;;;13.72;38.28;96522.34;5111395;28;20052;-74
2022/03/27 10:10:14;;;;;;;37.90;17.23;;;;;;;13.71;37.28;96523.44;5085855;28;20036;-75
2022/03/27 10:12:42;;;;;;;36.28;15.80;;;;;;;13.92;35.77;96518.91;5090847;28;20097;-75
2022/03/27 10:15:13;;;;;;;30.23;14.85;;;;;;;14.28;37.11;96517.03;5090979;28;20429;-75
2022/03/27 10:17:43;;;;;;;32.58;15.77;;;;;;;14.97;36.03;96517.34;5091031;28;20599;-74
2022/03/27 10:20:17;;;;;;;40.05;16.45;;;;;;;15.83;34.76;96516.28;5090984;28;20047;-74
2022/03/27 10:22:49;;;;;;;33.28;16.80;;;;;;;16.07;31.76;96517.13;5090757;28;20047;-75
2022/03/27 10:25:17;;;;;;;32.50;15.40;;;;;;;17.44;30.82;96509.72;5091422;28;20043;-75
2022/03/27 10:27:47;;;;;;;39.53;16.83;;;;;;;16.98;32.63;96513.00;5090972;28;20044;-75
2022/03/27 10:30:14;;;;;;;38.58;17.30;;;;;;;17.60;32.75;96506.84;5109822;28;20046;-74
2022/03/27 10:32:42;;;;;;;41.05;17.27;;;;;;;18.26;31.62;96506.81;5107070;28;20036;-74
2022/03/27 10:35:34;;;;;;;33.90;16.63;;;;;;;18.38;30.55;96501.81;5093327;28;20089;-74
2022/03/27 10:38:19;;;;;;;38.95;17.65;;;;;;;18.31;31.00;96504.09;5091793;28;20036;-76
2022/03/27 10:41:23;;;;;;;35.50;17.67;;;;;;;18.48;30.34;96492.84;5109363;28;20051;-74
2022/03/27 10:44:24;;;;;;;32.53;16.58;;;;;;;18.39;28.42;96494.59;5099553;28;20044;-73
2022/03/27 10:47:19;;;;;;;27.92;16.13;;;;;;;18.96;28.18;96492.44;5073758;28;20073;-73
2022/03/27 10:50:05;;;;;;;30.15;15.82;;;;;;;19.43;27.31;96489.56;5110244;28;20048;-75
2022/03/27 10:52:36;;;;;;;28.80;15.15;;;;;;;20.60;26.69;96487.72;5100111;28;20040;-73
2022/03/27 10:55:08;;;;;;;27.67;15.73;;;;;;;21.50;25.56;96487.53;5091682;28;20047;-73
2022/03/27 10:57:36;;;;;;;29.50;16.75;;;;;;;21.24;25.44;96494.47;5099837;28;20061;-75
2022/03/27 11:00:08;;;;;;;31.80;16.52;;;;;;;20.20;25.92;96485.03;5100111;28;20044;-75
2022/03/27 11:02:44;;;;;;;31.98;15.57;;;;;;;21.01;26.05;96490.34;5096491;28;20062;-74
2022/03/27 11:05:30;;;;;;;29.50;15.57;;;;;;;21.01;25.47;96491.13;5090993;28;20079;-75
2022/03/27 11:08:14;;;;;;;28.27;15.43;;;;;;;20.81;25.09;96492.50;5093290;28;20795;-77
2022/03/27 11:10:41;;;;;;;25.90;14.98;;;;;;;20.82;25.26;96478.03;5090368;28;20090;-76
2022/03/27 11:13:25;;;;;;;25.92;15.23;;;;;;;20.17;25.61;96480.31;5074279;28;20047;-76
2022/03/27 11:16:05;;;;;;;26.75;14.82;;;;;;;22.12;23.32;96464.91;5099545;27;20043;-75
2022/03/27 11:18:41;;;;;;;27.73;15.65;;;;;;;21.82;24.49;96470.19;5103544;28;20046;-75
2022/03/27 11:21:12;;;;;;;26.85;17.02;;;;;;;22.05;23.12;96461.94;5088933;28;20040;-73
2022/03/27 11:23:40;;;;;;;24.35;14.98;;;;;;;20.34;24.41;96468.09;5073921;28;20562;-74
2022/03/27 11:26:27;;;;;;;25.13;14.77;;;;;;;21.15;23.97;96458.88;5099975;28;20441;-75
2022/03/27 11:28:55;;;;;;;22.60;13.85;;;;;;;22.76;23.47;96463.25;5104078;27;20043;-74